Aérodrome :
LOGIN :

S'inscrire | Disclaimer

   EN    FR    IT 

 










Légende :    VFR   VFR Marginal   IFR   IFR Intensif   IFR Très Intensif
Visi : 
Plafond : 
>= 8 km
>= 3000ft
5 à 8 km
1000 à 3000 ft
1500m à 5 km
500 à 1000 ft
800 à 1500m
200 à 500 ft
< 800m
< 200 ft
Symboles :   Orages  Brouillard  Fortes neiges  Fortes précipitations  Vent > 20 kt
SIGMETs :   Divers  Orages  Givrage  Turbulence  Onde Orograph.  Cendres Volcan.






- Altitude de l'aérodrome : 209 ft
- Code IATA : CLY


LFKC - Calvi

DERNIER METAR :
  • 031930Z AUTO VRB03KT CAVOK 21/12 Q1008 TEMPO 23014KT BECMG FEW050TCU

METARs EXPIRÉS :
  • 031900Z AUTO 20006KT 170V240 CAVOK 21/12 Q1008 NOSIG
  • 031830Z AUTO 22010KT 190V250 CAVOK 22/11 Q1008 NOSIG
  • 031800Z AUTO 20005KT 160V260 CAVOK 23/11 Q1008 NOSIG
  • 031730Z AUTO 21008KT CAVOK 24/12 Q1008 NOSIG
  • 031700Z AUTO 18008KT 140V210 CAVOK 24/12 Q1008 NOSIG

TAF TAF LFKC
Valide du 03 à 15h jusqu'au 04 à 15h UTC


031400Z 0315/0415 23014KT CAVOK TX27/0412Z TN16/0403Z
BECMG 0321/0323 VRB05KT FEW050TCU
TEMPO 0323/0405 SHRA SCT040CB BKN090
BECMG 0411/0413 22020G30KT NSC
ATIS : +33 4 95 65 82 49



MET'MAP, la Météo Aéronautique d'un coup d'oeil ! - Copyright ORBIFLY Décembre 2007 - Disclaimer

ORBIFLY MET'MAP TEAM :

Programmation & Développement : Alexandra Zaïnal
Sur une idée originale de : Baudouin d'Aumeries
Assistance à la programmation : Marc-Olivier Méhu
Soutien technique & logistique : Manuel Goepfert

Contact : metmap@orbifly.com




SOURCES & CREDITS :

   NOAA